createdAt,value
2018-07-13T08:13:35.452Z,9.80
2018-07-13T08:16:04.685Z,12.50
2018-07-13T08:18:33.727Z,10.40
2018-07-13T09:40:23.104Z,5.80
2018-07-13T09:47:48.913Z,6.05
2018-07-13T09:50:18.132Z,5.20
2018-07-13T09:52:47.988Z,6.50
2018-07-13T09:55:17.512Z,5.30
2018-07-13T09:57:46.856Z,5.43
2018-07-13T10:00:16.178Z,5.83
2018-07-13T10:02:45.260Z,6.60
2018-07-13T10:05:14.422Z,6.20
2018-07-13T10:07:43.926Z,6.95
2018-07-13T10:10:12.692Z,6.37
2018-07-13T10:12:42.639Z,6.20
2018-07-13T10:15:12.759Z,6.20
2018-07-13T10:17:42.541Z,5.50
2018-07-13T10:20:12.251Z,5.67
2018-07-13T10:22:41.195Z,5.60
2018-07-13T10:25:10.447Z,6.70
2018-07-13T10:27:39.530Z,5.80
2018-07-13T10:30:11.796Z,5.40
2018-07-13T10:32:41.584Z,5.20
2018-07-13T10:35:11.001Z,4.90
2018-07-13T10:37:41.672Z,6.00
2018-07-13T10:40:10.404Z,6.10
2018-07-13T10:42:39.235Z,6.23
2018-07-13T10:45:08.126Z,4.93
2018-07-13T10:47:37.276Z,5.50
2018-07-13T10:50:06.726Z,6.00
2018-07-13T10:52:36.042Z,6.20
2018-07-13T10:55:05.395Z,4.90
2018-07-13T10:57:34.664Z,5.70
2018-07-13T11:00:04.366Z,5.77
2018-07-13T11:02:32.950Z,6.33
2018-07-13T11:05:02.597Z,5.03
2018-07-13T11:07:31.787Z,5.40
2018-07-13T11:10:00.658Z,5.93
2018-07-13T11:12:29.486Z,4.93
2018-07-13T11:14:59.628Z,5.30
2018-07-13T11:17:28.710Z,5.47
2018-07-13T11:19:57.701Z,4.63
2018-07-13T11:22:26.780Z,5.20
2018-07-13T11:24:56.172Z,4.23
2018-07-13T11:27:24.731Z,3.77
2018-07-13T11:29:53.954Z,4.80
2018-07-13T11:32:24.094Z,5.17
2018-07-13T11:34:53.276Z,4.17
2018-07-13T11:37:22.007Z,4.80
2018-07-13T11:39:50.766Z,4.40
2018-07-13T11:42:19.932Z,3.60
2018-07-13T11:44:49.760Z,3.90
2018-07-13T11:47:18.708Z,3.63
2018-07-13T11:49:47.508Z,3.10
2018-07-13T11:52:16.216Z,3.60
2018-07-13T11:54:45.370Z,3.10
2018-07-13T11:57:14.900Z,3.77
2018-07-13T11:59:43.850Z,3.23
2018-07-13T12:02:13.442Z,3.87
2018-07-13T12:04:42.262Z,4.17
2018-07-13T12:07:11.484Z,4.63
2018-07-13T12:09:40.522Z,4.33
2018-07-13T12:12:09.704Z,4.97
2018-07-13T12:14:38.504Z,5.50
2018-07-13T12:17:07.975Z,4.47
2018-07-13T12:19:37.457Z,4.20
2018-07-13T12:22:06.184Z,4.10
2018-07-13T12:24:34.896Z,3.93
2018-07-13T12:27:03.680Z,5.87
2018-07-13T12:29:32.386Z,4.43
2018-07-13T12:32:00.901Z,4.10
2018-07-13T12:34:29.499Z,3.60
2018-07-13T12:36:58.569Z,3.20
2018-07-13T12:39:27.745Z,3.30
2018-07-13T12:41:56.460Z,3.83
2018-07-13T12:44:25.824Z,3.73
2018-07-13T12:46:54.657Z,3.70
2018-07-13T12:49:23.517Z,5.27
2018-07-13T12:51:52.949Z,4.30
2018-07-13T12:54:22.505Z,3.37
2018-07-13T12:56:52.177Z,3.53
2018-07-13T12:59:21.682Z,3.40
2018-07-13T13:01:51.855Z,3.47
2018-07-13T13:04:22.725Z,3.67
2018-07-13T13:06:52.943Z,3.33
2018-07-13T13:09:23.082Z,3.33
2018-07-13T13:11:53.340Z,3.10
2018-07-13T13:14:22.783Z,3.70
2018-07-13T13:16:51.960Z,3.80
2018-07-13T13:37:10.169Z,3.30
2018-07-13T13:39:40.105Z,3.30
2018-07-13T13:54:10.654Z,3.03
2018-07-13T13:56:39.796Z,2.90
2018-07-13T13:59:08.825Z,3.20
2018-07-13T14:01:37.978Z,2.60
2018-07-13T14:04:06.979Z,2.63
2018-07-13T14:06:35.919Z,2.70
2018-07-13T14:09:06.032Z,2.37
2018-07-13T14:11:34.898Z,2.60
2018-07-13T14:14:04.141Z,2.50
2018-07-13T14:16:33.695Z,2.87
2018-07-13T14:19:03.240Z,2.93
2018-07-13T14:21:32.331Z,2.67
2018-07-13T14:24:00.760Z,2.80
2018-07-13T14:26:29.488Z,2.80
2018-07-13T14:28:58.784Z,2.53
2018-07-13T14:31:28.362Z,2.73
2018-07-13T14:33:57.099Z,2.93
2018-07-13T14:36:25.957Z,2.20
2018-07-13T14:38:55.631Z,2.30
2018-07-13T14:41:24.556Z,2.50
2018-07-13T14:43:53.269Z,2.60
2018-07-13T14:46:22.054Z,2.33
2018-07-13T14:48:51.245Z,1.97
2018-07-13T14:51:19.842Z,2.30
2018-07-13T14:53:49.183Z,2.10
2018-07-13T14:56:18.060Z,2.43
2018-07-13T14:58:46.904Z,2.70
2018-07-13T15:01:16.049Z,2.30
2018-07-13T15:03:44.986Z,2.60
2018-07-13T15:06:13.968Z,2.70
2018-07-13T15:08:42.641Z,2.77
2018-07-13T15:11:11.550Z,2.50
2018-07-13T15:13:40.947Z,2.57
2018-07-13T15:16:09.879Z,2.57
2018-07-13T15:18:38.599Z,2.50
2018-07-13T15:21:07.937Z,2.50
2018-07-13T15:23:36.709Z,2.30
2018-07-13T15:26:05.848Z,2.23
2018-07-13T15:28:34.873Z,2.53
2018-07-13T15:31:04.143Z,2.50
2018-07-13T15:33:32.840Z,2.57
2018-07-13T15:36:01.932Z,2.70
2018-07-13T15:38:30.945Z,2.60
2018-07-13T15:41:00.483Z,2.50
2018-07-13T15:43:29.361Z,2.20
2018-07-13T15:45:58.243Z,2.20
2018-07-13T15:48:27.538Z,3.10
2018-07-13T15:50:56.472Z,2.87
2018-07-13T15:53:25.627Z,3.37
2018-07-13T15:55:59.541Z,3.13
2018-07-13T15:58:29.112Z,3.00
2018-07-13T16:00:58.359Z,3.00
2018-07-13T16:03:27.767Z,2.80
2018-07-13T16:05:56.628Z,2.70
2018-07-13T16:08:25.489Z,3.27
2018-07-13T16:10:54.758Z,2.50
2018-07-13T16:13:23.486Z,2.37
2018-07-13T16:15:52.355Z,3.00
2018-07-13T16:18:21.827Z,2.70
2018-07-13T16:20:50.775Z,2.87
2018-07-13T16:23:20.075Z,3.27
2018-07-13T16:25:49.188Z,2.67
2018-07-13T16:28:18.502Z,2.73
2018-07-13T16:30:48.030Z,2.67
2018-07-13T16:33:16.849Z,3.10
2018-07-13T16:35:47.515Z,2.87
2018-07-13T16:38:17.676Z,3.20
2018-07-13T16:40:46.687Z,2.80
2018-07-13T16:43:17.725Z,2.70
2018-07-13T16:45:47.987Z,2.83
2018-07-13T16:48:19.552Z,2.63
2018-07-13T16:50:55.049Z,2.70
2018-07-13T16:56:03.503Z,2.73
2018-07-13T16:58:32.867Z,2.80
2018-07-13T17:01:03.156Z,2.80
2018-07-13T17:03:33.285Z,3.07
2018-07-13T17:06:03.054Z,2.80
2018-07-13T17:08:32.316Z,3.20
2018-07-13T17:11:01.749Z,3.73
2018-07-13T17:13:30.871Z,3.70
2018-07-13T17:15:59.955Z,3.60
2018-07-13T17:18:28.730Z,4.00
2018-07-13T17:20:58.586Z,3.50
2018-07-13T17:23:28.108Z,3.43
2018-07-13T17:25:57.778Z,3.03
2018-07-13T17:28:27.021Z,3.50
2018-07-13T17:30:56.313Z,2.93
2018-07-13T17:33:25.762Z,3.23
2018-07-13T17:35:54.709Z,3.70
2018-07-13T17:38:23.532Z,3.40
2018-07-13T17:40:53.145Z,2.80
2018-07-13T17:43:23.540Z,3.43
2018-07-13T17:45:53.507Z,3.67
2018-07-13T17:48:23.075Z,3.10
2018-07-13T17:50:52.138Z,3.50
2018-07-13T17:53:21.323Z,3.23
2018-07-13T17:55:50.379Z,3.57
2018-07-13T17:58:20.106Z,3.33
2018-07-13T18:00:50.705Z,4.00
2018-07-13T18:03:19.907Z,4.00
2018-07-13T18:05:48.765Z,3.60
2018-07-13T18:08:18.296Z,3.43
2018-07-13T18:10:47.739Z,3.63
2018-07-13T18:13:17.278Z,4.53
2018-07-13T18:15:46.345Z,4.70
2018-07-13T18:18:16.206Z,3.80
2018-07-13T18:20:45.123Z,4.20
2018-07-13T18:23:15.253Z,4.30
2018-07-13T18:25:47.661Z,4.33
2018-07-13T18:28:17.609Z,4.87
2018-07-13T18:30:47.229Z,4.13
2018-07-13T18:33:16.447Z,5.30
2018-07-13T18:35:45.669Z,4.23
2018-07-13T18:38:14.864Z,3.80
2018-07-13T18:40:43.851Z,4.50
2018-07-13T18:43:13.026Z,4.73
2018-07-13T18:45:42.221Z,4.07
2018-07-13T18:48:11.228Z,4.30
2018-07-13T18:50:39.959Z,4.33
2018-07-13T18:53:08.675Z,4.30
2018-07-13T19:12:56.295Z,4.70
2018-07-13T19:15:25.060Z,4.90
2018-07-13T19:17:54.688Z,4.70
2018-07-13T19:20:24.044Z,4.70
2018-07-13T19:22:53.169Z,4.40
2018-07-13T19:25:22.786Z,4.90
2018-07-13T19:27:52.376Z,4.83
2018-07-13T19:30:21.875Z,4.95
2018-07-13T19:32:51.066Z,5.00
2018-07-13T19:35:21.416Z,5.10
2018-07-13T19:37:51.390Z,5.90
2018-07-13T19:40:21.616Z,6.35
2018-07-13T19:47:48.804Z,5.90
2018-07-13T19:50:18.179Z,5.10
2018-07-13T20:00:14.326Z,6.40
2018-07-13T20:15:09.656Z,6.70
2018-07-13T20:52:24.434Z,8.40
2018-07-13T20:54:54.110Z,9.40
2018-07-13T23:41:49.895Z,22.50
